Overview Statistics Trail Chart Weather Telemetry Raw packets
 

This is the latest recevied weather packets stored in our database for station/object SV9TNF-51. If no packets are shown the sender has not sent any weather packets the latest 10 day(s).

<< 88 89 90 91 92 93 94 >>
Time Temp. Humidity Pressure Rain* Wind** Luminosity Snow
1788013013 30.56° C 44% 1013.6 hPa 0 mm 5.81 m/s, 139° - -
1788012713 31.11° C 42% 1013.9 hPa 0 mm 2.24 m/s, 98° - -
1788012413 30° C 45% 1013.9 hPa 0 mm 4.92 m/s, 345° - -
1788012113 30° C 46% 1013.9 hPa 0 mm 2.68 m/s, 334° - -
1788011813 30.56° C 45% 1013.9 hPa 0 mm 12.07 m/s, 319° - -
1788011513 31.11° C 44% 1013.9 hPa 0 mm 1.34 m/s, 126° - -
1788011212 30.56° C 46% 1013.6 hPa 0 mm 10.28 m/s, 346° - -
1788010912 30° C 45% 1013.6 hPa 0 mm 16.09 m/s, 338° - -
1788010612 31.11° C 43% 1013.6 hPa 0 mm 1.34 m/s, 97° - -
1788010312 31.67° C 40% 1013.6 hPa 0 mm 7.6 m/s, 329° - -
1788010012 32.22° C 40% 1013.6 hPa 0 mm 3.13 m/s, 319° - -
1788009712 32.78° C 38% 1013.9 hPa 0 mm 1.79 m/s, 121° - -
1788009412 32.22° C 40% 1013.9 hPa 0 mm 1.34 m/s, 125° - -
1788009114 34.44° C 33% 1013.9 hPa 0 mm 2.68 m/s, 126° - -
1788008812 34.44° C 35% 1013.9 hPa 0 mm 3.13 m/s, 132° - -
1788008511 34.44° C 34% 1013.9 hPa 0 mm 1.79 m/s, 328° - -
1788008211 34.44° C 33% 1013.9 hPa 0 mm 1.79 m/s, 133° - -
1788007911 33.89° C 30% 1013.9 hPa 0 mm 1.34 m/s, 313° - -
1788007611 33.33° C 31% 1013.9 hPa 0 mm 4.02 m/s, 112° - -
1788007311 33.33° C 31% 1013.9 hPa 0 mm 5.81 m/s, 140° - -
1788007011 33.33° C 31% 1013.9 hPa 0 mm 4.92 m/s, 137° - -
1788006710 35° C 29% 1013.9 hPa 0 mm 0.89 m/s, 128° - -
1788006411 34.44° C 29% 1013.9 hPa 0 mm 0.89 m/s, 131° - -
1788006111 34.44° C 28% 1014.2 hPa 0 mm 4.02 m/s, 130° - -
1788005810 34.44° C 30% 1014.2 hPa 0 mm 0.45 m/s, 110° - -

* Rain latest hour (hover to see other rain measurements)
** Current wind speed in m/s (hover to see current wind gust speed)